sensor_id;sensor_type;location;lat;lon;timestamp;P1;durP1;ratioP1;P2;durP2;ratioP2
15218;SDS011;15623;53.986;11.676;2022-07-29T00:47:05;7.07;;;4.97;;
15218;SDS011;15623;53.986;11.676;2022-07-29T00:49:34;6.43;;;4.50;;
15218;SDS011;15623;53.986;11.676;2022-07-29T00:57:52;6.03;;;4.20;;
15218;SDS011;15623;53.986;11.676;2022-07-29T01:03:15;7.20;;;4.77;;
15218;SDS011;15623;53.986;11.676;2022-07-29T01:05:57;7.87;;;4.30;;
15218;SDS011;15623;53.986;11.676;2022-07-29T01:11:32;4.93;;;4.43;;
15218;SDS011;15623;53.986;11.676;2022-07-29T01:16:45;7.47;;;4.67;;
15218;SDS011;15623;53.986;11.676;2022-07-29T03:02:04;5.30;;;4.53;;
15218;SDS011;15623;53.986;11.676;2022-07-29T03:04:33;7.43;;;4.20;;
15218;SDS011;15623;53.986;11.676;2022-07-29T03:28:57;5.97;;;3.90;;
15218;SDS011;15623;53.986;11.676;2022-07-29T03:31:45;4.83;;;3.70;;
15218;SDS011;15623;53.986;11.676;2022-07-29T03:34:18;4.73;;;3.80;;
15218;SDS011;15623;53.986;11.676;2022-07-29T03:37:05;5.03;;;3.70;;
15218;SDS011;15623;53.986;11.676;2022-07-29T03:39:48;4.00;;;3.53;;
15218;SDS011;15623;53.986;11.676;2022-07-29T03:42:32;5.27;;;3.57;;
15218;SDS011;15623;53.986;11.676;2022-07-29T03:45:09;6.70;;;3.77;;
15218;SDS011;15623;53.986;11.676;2022-07-29T04:43:43;7.37;;;3.10;;
15218;SDS011;15623;53.986;11.676;2022-07-29T04:46:13;4.97;;;2.50;;
15218;SDS011;15623;53.986;11.676;2022-07-29T04:48:40;3.33;;;2.50;;
15218;SDS011;15623;53.986;11.676;2022-07-29T04:51:08;3.97;;;2.60;;
15218;SDS011;15623;53.986;11.676;2022-07-29T04:53:35;5.27;;;2.43;;
15218;SDS011;15623;53.986;11.676;2022-07-29T04:56:03;3.17;;;2.73;;
15218;SDS011;15623;53.986;11.676;2022-07-29T04:58:30;4.67;;;2.43;;
15218;SDS011;15623;53.986;11.676;2022-07-29T05:01:00;9.37;;;2.77;;
15218;SDS011;15623;53.986;11.676;2022-07-29T05:06:45;3.20;;;2.25;;
15218;SDS011;15623;53.986;11.676;2022-07-29T05:09:15;5.13;;;2.33;;
15218;SDS011;15623;53.986;11.676;2022-07-29T05:12:00;3.05;;;2.03;;
15218;SDS011;15623;53.986;11.676;2022-07-29T05:14:31;5.30;;;2.50;;
15218;SDS011;15623;53.986;11.676;2022-07-29T05:17:15;3.97;;;2.10;;
15218;SDS011;15623;53.986;11.676;2022-07-29T05:19:45;4.53;;;2.08;;
15218;SDS011;15623;53.986;11.676;2022-07-29T05:22:19;3.15;;;1.90;;
15218;SDS011;15623;53.986;11.676;2022-07-29T05:24:47;5.72;;;2.17;;
15218;SDS011;15623;53.986;11.676;2022-07-29T05:27:20;2.88;;;2.00;;
15218;SDS011;15623;53.986;11.676;2022-07-29T05:29:50;3.70;;;2.10;;
15218;SDS011;15623;53.986;11.676;2022-07-29T05:46:22;2.72;;;1.80;;
15218;SDS011;15623;53.986;11.676;2022-07-29T05:48:49;4.30;;;1.83;;
15218;SDS011;15623;53.986;11.676;2022-07-29T05:51:18;3.88;;;1.67;;
15218;SDS011;15623;53.986;11.676;2022-07-29T05:53:45;3.42;;;1.90;;
15218;SDS011;15623;53.986;11.676;2022-07-29T05:56:13;2.90;;;1.75;;
15218;SDS011;15623;53.986;11.676;2022-07-29T05:58:41;2.03;;;1.80;;
15218;SDS011;15623;53.986;11.676;2022-07-29T06:01:11;4.45;;;1.63;;
15218;SDS011;15623;53.986;11.676;2022-07-29T06:06:32;3.67;;;1.60;;
15218;SDS011;15623;53.986;11.676;2022-07-29T06:09:06;2.05;;;1.40;;
15218;SDS011;15623;53.986;11.676;2022-07-29T06:11:40;6.63;;;1.80;;
15218;SDS011;15623;53.986;11.676;2022-07-29T06:14:07;3.65;;;1.85;;
15218;SDS011;15623;53.986;11.676;2022-07-29T06:19:24;3.35;;;1.67;;
15218;SDS011;15623;53.986;11.676;2022-07-29T06:22:07;2.92;;;1.70;;
15218;SDS011;15623;53.986;11.676;2022-07-29T06:24:48;2.55;;;1.63;;
15218;SDS011;15623;53.986;11.676;2022-07-29T06:28:08;5.60;;;1.77;;
15218;SDS011;15623;53.986;11.676;2022-07-29T06:31:17;3.17;;;1.98;;
15218;SDS011;15623;53.986;11.676;2022-07-29T06:34:04;1.70;;;1.60;;
15218;SDS011;15623;53.986;11.676;2022-07-29T06:57:06;3.30;;;1.80;;
15218;SDS011;15623;53.986;11.676;2022-07-29T06:59:35;2.33;;;1.48;;
15218;SDS011;15623;53.986;11.676;2022-07-29T07:02:03;3.38;;;1.80;;
15218;SDS011;15623;53.986;11.676;2022-07-29T07:04:36;1.55;;;1.45;;
15218;SDS011;15623;53.986;11.676;2022-07-29T07:07:04;2.63;;;1.52;;
15218;SDS011;15623;53.986;11.676;2022-07-29T07:09:32;2.22;;;1.50;;
15218;SDS011;15623;53.986;11.676;2022-07-29T07:12:17;1.88;;;1.65;;
15218;SDS011;15623;53.986;11.676;2022-07-29T07:15:04;2.42;;;1.77;;
15218;SDS011;15623;53.986;11.676;2022-07-29T07:17:51;3.00;;;1.80;;
15218;SDS011;15623;53.986;11.676;2022-07-29T07:20:18;2.58;;;1.67;;
15218;SDS011;15623;53.986;11.676;2022-07-29T07:22:49;3.13;;;1.75;;
15218;SDS011;15623;53.986;11.676;2022-07-29T07:25:18;2.55;;;1.55;;
15218;SDS011;15623;53.986;11.676;2022-07-29T07:27:48;3.47;;;1.75;;
15218;SDS011;15623;53.986;11.676;2022-07-29T07:30:15;12.57;;;1.85;;
15218;SDS011;15623;53.986;11.676;2022-07-29T07:32:42;4.50;;;1.80;;
15218;SDS011;15623;53.986;11.676;2022-07-29T07:35:10;4.03;;;1.70;;
15218;SDS011;15623;53.986;11.676;2022-07-29T07:37:38;2.22;;;1.63;;
15218;SDS011;15623;53.986;11.676;2022-07-29T07:40:07;3.10;;;1.83;;
15218;SDS011;15623;53.986;11.676;2022-07-29T07:42:58;6.63;;;1.80;;
15218;SDS011;15623;53.986;11.676;2022-07-29T07:45:29;2.90;;;1.80;;
15218;SDS011;15623;53.986;11.676;2022-07-29T07:47:58;2.08;;;1.70;;
15218;SDS011;15623;53.986;11.676;2022-07-29T07:50:26;3.00;;;1.83;;
15218;SDS011;15623;53.986;11.676;2022-07-29T07:52:54;2.75;;;1.98;;
15218;SDS011;15623;53.986;11.676;2022-07-29T07:55:22;6.72;;;2.25;;
15218;SDS011;15623;53.986;11.676;2022-07-29T07:57:52;2.28;;;1.80;;
15218;SDS011;15623;53.986;11.676;2022-07-29T08:00:21;3.88;;;1.80;;
15218;SDS011;15623;53.986;11.676;2022-07-29T08:02:49;2.38;;;1.83;;
15218;SDS011;15623;53.986;11.676;2022-07-29T08:05:19;3.78;;;1.60;;
15218;SDS011;15623;53.986;11.676;2022-07-29T08:08:03;4.85;;;1.80;;
15218;SDS011;15623;53.986;11.676;2022-07-29T08:10:30;4.90;;;1.85;;
15218;SDS011;15623;53.986;11.676;2022-07-29T08:13:23;3.25;;;1.83;;
15218;SDS011;15623;53.986;11.676;2022-07-29T08:34:46;5.53;;;2.03;;
15218;SDS011;15623;53.986;11.676;2022-07-29T08:37:14;2.75;;;1.92;;
15218;SDS011;15623;53.986;11.676;2022-07-29T08:40:05;4.60;;;2.00;;
15218;SDS011;15623;53.986;11.676;2022-07-29T08:42:33;4.20;;;1.90;;
15218;SDS011;15623;53.986;11.676;2022-07-29T08:45:00;2.80;;;2.05;;
15218;SDS011;15623;53.986;11.676;2022-07-29T08:49:59;6.40;;;2.05;;
15218;SDS011;15623;53.986;11.676;2022-07-29T08:52:35;3.72;;;1.90;;
15218;SDS011;15623;53.986;11.676;2022-07-29T08:55:04;11.98;;;2.42;;
15218;SDS011;15623;53.986;11.676;2022-07-29T08:57:39;3.00;;;2.10;;
15218;SDS011;15623;53.986;11.676;2022-07-29T09:03:40;4.63;;;2.00;;
15218;SDS011;15623;53.986;11.676;2022-07-29T09:06:09;2.47;;;1.90;;
15218;SDS011;15623;53.986;11.676;2022-07-29T09:08:41;2.22;;;1.70;;
15218;SDS011;15623;53.986;11.676;2022-07-29T09:11:08;2.95;;;1.90;;
15218;SDS011;15623;53.986;11.676;2022-07-29T09:13:36;2.88;;;1.73;;
15218;SDS011;15623;53.986;11.676;2022-07-29T09:16:19;2.17;;;1.98;;
15218;SDS011;15623;53.986;11.676;2022-07-29T09:18:48;2.60;;;1.95;;
15218;SDS011;15623;53.986;11.676;2022-07-29T09:27:18;6.30;;;1.92;;
15218;SDS011;15623;53.986;11.676;2022-07-29T09:30:18;4.22;;;2.13;;
15218;SDS011;15623;53.986;11.676;2022-07-29T09:32:54;2.67;;;1.77;;
15218;SDS011;15623;53.986;11.676;2022-07-29T09:43:36;3.83;;;1.85;;
15218;SDS011;15623;53.986;11.676;2022-07-29T09:46:12;5.22;;;2.00;;
15218;SDS011;15623;53.986;11.676;2022-07-29T09:48:41;3.85;;;1.90;;
15218;SDS011;15623;53.986;11.676;2022-07-29T09:51:26;2.53;;;1.80;;
15218;SDS011;15623;53.986;11.676;2022-07-29T09:54:05;2.25;;;1.98;;
15218;SDS011;15623;53.986;11.676;2022-07-29T09:56:52;2.95;;;2.13;;
15218;SDS011;15623;53.986;11.676;2022-07-29T09:59:21;2.13;;;1.80;;
15218;SDS011;15623;53.986;11.676;2022-07-29T10:02:08;3.92;;;2.08;;
15218;SDS011;15623;53.986;11.676;2022-07-29T10:04:46;3.80;;;1.95;;
15218;SDS011;15623;53.986;11.676;2022-07-29T10:07:19;5.00;;;2.30;;
15218;SDS011;15623;53.986;11.676;2022-07-29T10:10:02;3.22;;;2.00;;
15218;SDS011;15623;53.986;11.676;2022-07-29T10:12:48;2.50;;;1.83;;
15218;SDS011;15623;53.986;11.676;2022-07-29T10:15:21;3.58;;;2.10;;
15218;SDS011;15623;53.986;11.676;2022-07-29T10:17:51;3.42;;;1.90;;
15218;SDS011;15623;53.986;11.676;2022-07-29T10:20:22;3.90;;;2.00;;
15218;SDS011;15623;53.986;11.676;2022-07-29T10:22:51;3.38;;;1.90;;
15218;SDS011;15623;53.986;11.676;2022-07-29T10:25:24;2.13;;;1.90;;
15218;SDS011;15623;53.986;11.676;2022-07-29T10:28:02;3.75;;;2.17;;
15218;SDS011;15623;53.986;11.676;2022-07-29T10:30:45;2.58;;;2.25;;
15218;SDS011;15623;53.986;11.676;2022-07-29T10:33:17;3.50;;;2.45;;
15218;SDS011;15623;53.986;11.676;2022-07-29T10:38:37;4.38;;;2.20;;
15218;SDS011;15623;53.986;11.676;2022-07-29T10:41:35;3.55;;;2.00;;
15218;SDS011;15623;53.986;11.676;2022-07-29T10:44:05;3.13;;;2.08;;
15218;SDS011;15623;53.986;11.676;2022-07-29T10:46:36;2.15;;;1.85;;
15218;SDS011;15623;53.986;11.676;2022-07-29T10:54:42;2.63;;;1.75;;
15218;SDS011;15623;53.986;11.676;2022-07-29T10:57:24;5.82;;;2.00;;
15218;SDS011;15623;53.986;11.676;2022-07-29T11:02:43;2.80;;;1.90;;
15218;SDS011;15623;53.986;11.676;2022-07-29T11:05:13;4.60;;;1.90;;
15218;SDS011;15623;53.986;11.676;2022-07-29T11:10:24;4.65;;;2.00;;
15218;SDS011;15623;53.986;11.676;2022-07-29T11:12:52;4.32;;;2.00;;
15218;SDS011;15623;53.986;11.676;2022-07-29T11:15:20;4.95;;;1.90;;
15218;SDS011;15623;53.986;11.676;2022-07-29T11:18:06;3.72;;;2.17;;
15218;SDS011;15623;53.986;11.676;2022-07-29T11:20:35;2.75;;;1.73;;
15218;SDS011;15623;53.986;11.676;2022-07-29T11:23:17;2.80;;;2.00;;
15218;SDS011;15623;53.986;11.676;2022-07-29T11:25:44;2.10;;;1.77;;
15218;SDS011;15623;53.986;11.676;2022-07-29T11:28:13;2.50;;;1.80;;
15218;SDS011;15623;53.986;11.676;2022-07-29T11:30:49;3.13;;;1.88;;
15218;SDS011;15623;53.986;11.676;2022-07-29T11:33:28;4.65;;;1.92;;
15218;SDS011;15623;53.986;11.676;2022-07-29T11:36:09;5.20;;;1.92;;
15218;SDS011;15623;53.986;11.676;2022-07-29T11:38:37;2.83;;;1.88;;
15218;SDS011;15623;53.986;11.676;2022-07-29T11:41:20;3.67;;;1.83;;
15218;SDS011;15623;53.986;11.676;2022-07-29T11:43:49;3.53;;;1.63;;
15218;SDS011;15623;53.986;11.676;2022-07-29T11:46:18;3.30;;;2.22;;
15218;SDS011;15623;53.986;11.676;2022-07-29T11:48:48;3.03;;;1.90;;
15218;SDS011;15623;53.986;11.676;2022-07-29T11:51:15;4.57;;;2.05;;
15218;SDS011;15623;53.986;11.676;2022-07-29T11:53:46;3.15;;;2.03;;
15218;SDS011;15623;53.986;11.676;2022-07-29T11:56:14;5.25;;;2.13;;
15218;SDS011;15623;53.986;11.676;2022-07-29T11:58:43;2.97;;;1.83;;
15218;SDS011;15623;53.986;11.676;2022-07-29T12:01:12;2.95;;;1.77;;
15218;SDS011;15623;53.986;11.676;2022-07-29T12:03:40;2.45;;;1.77;;
15218;SDS011;15623;53.986;11.676;2022-07-29T12:06:13;6.88;;;2.30;;
15218;SDS011;15623;53.986;11.676;2022-07-29T12:08:41;2.25;;;1.67;;
15218;SDS011;15623;53.986;11.676;2022-07-29T12:11:14;2.85;;;1.90;;
15218;SDS011;15623;53.986;11.676;2022-07-29T12:13:46;4.40;;;2.10;;
15218;SDS011;15623;53.986;11.676;2022-07-29T12:16:14;5.80;;;2.10;;
15218;SDS011;15623;53.986;11.676;2022-07-29T12:18:41;5.03;;;2.00;;
15218;SDS011;15623;53.986;11.676;2022-07-29T12:21:09;5.20;;;1.80;;
15218;SDS011;15623;53.986;11.676;2022-07-29T12:23:38;4.80;;;2.17;;
15218;SDS011;15623;53.986;11.676;2022-07-29T12:26:19;5.32;;;2.28;;
15218;SDS011;15623;53.986;11.676;2022-07-29T12:28:46;7.95;;;2.20;;
15218;SDS011;15623;53.986;11.676;2022-07-29T12:31:14;6.25;;;2.15;;
15218;SDS011;15623;53.986;11.676;2022-07-29T12:33:42;4.95;;;2.05;;
15218;SDS011;15623;53.986;11.676;2022-07-29T12:36:09;3.10;;;1.92;;
15218;SDS011;15623;53.986;11.676;2022-07-29T12:38:38;3.42;;;2.05;;
15218;SDS011;15623;53.986;11.676;2022-07-29T12:41:07;5.40;;;1.88;;
15218;SDS011;15623;53.986;11.676;2022-07-29T12:43:34;5.20;;;1.88;;
15218;SDS011;15623;53.986;11.676;2022-07-29T12:46:11;6.25;;;1.90;;
15218;SDS011;15623;53.986;11.676;2022-07-29T12:48:40;3.80;;;2.20;;
15218;SDS011;15623;53.986;11.676;2022-07-29T12:51:08;5.65;;;2.25;;
15218;SDS011;15623;53.986;11.676;2022-07-29T12:53:39;3.45;;;1.90;;
15218;SDS011;15623;53.986;11.676;2022-07-29T12:56:09;5.03;;;1.65;;
15218;SDS011;15623;53.986;11.676;2022-07-29T12:58:42;6.20;;;2.40;;
15218;SDS011;15623;53.986;11.676;2022-07-29T13:01:10;5.53;;;1.95;;
15218;SDS011;15623;53.986;11.676;2022-07-29T13:03:43;5.93;;;1.90;;
15218;SDS011;15623;53.986;11.676;2022-07-29T13:09:00;3.13;;;1.90;;
15218;SDS011;15623;53.986;11.676;2022-07-29T13:11:28;4.60;;;2.00;;
15218;SDS011;15623;53.986;11.676;2022-07-29T13:13:56;6.28;;;2.40;;
15218;SDS011;15623;53.986;11.676;2022-07-29T13:16:59;5.20;;;2.17;;
15218;SDS011;15623;53.986;11.676;2022-07-29T13:19:40;5.15;;;1.90;;
15218;SDS011;15623;53.986;11.676;2022-07-29T13:22:13;4.10;;;1.90;;
15218;SDS011;15623;53.986;11.676;2022-07-29T13:24:53;4.20;;;2.13;;
15218;SDS011;15623;53.986;11.676;2022-07-29T13:27:22;4.75;;;2.20;;
15218;SDS011;15623;53.986;11.676;2022-07-29T13:29:50;6.28;;;2.20;;
15218;SDS011;15623;53.986;11.676;2022-07-29T13:32:25;4.80;;;1.70;;
15218;SDS011;15623;53.986;11.676;2022-07-29T13:34:55;5.88;;;2.15;;
15218;SDS011;15623;53.986;11.676;2022-07-29T13:37:23;2.63;;;1.70;;
15218;SDS011;15623;53.986;11.676;2022-07-29T13:39:52;5.65;;;2.17;;
15218;SDS011;15623;53.986;11.676;2022-07-29T13:42:21;6.40;;;2.00;;
15218;SDS011;15623;53.986;11.676;2022-07-29T13:44:48;5.43;;;2.20;;
15218;SDS011;15623;53.986;11.676;2022-07-29T13:47:16;3.17;;;1.98;;
15218;SDS011;15623;53.986;11.676;2022-07-29T13:49:44;6.72;;;2.28;;
15218;SDS011;15623;53.986;11.676;2022-07-29T13:52:11;3.60;;;2.10;;
15218;SDS011;15623;53.986;11.676;2022-07-29T13:54:43;6.70;;;2.10;;
15218;SDS011;15623;53.986;11.676;2022-07-29T14:00:15;5.07;;;1.80;;
15218;SDS011;15623;53.986;11.676;2022-07-29T14:03:02;5.88;;;1.95;;
15218;SDS011;15623;53.986;11.676;2022-07-29T14:05:37;5.07;;;2.00;;
15218;SDS011;15623;53.986;11.676;2022-07-29T14:08:07;4.40;;;1.60;;
15218;SDS011;15623;53.986;11.676;2022-07-29T14:13:27;3.05;;;1.80;;
15218;SDS011;15623;53.986;11.676;2022-07-29T14:16:16;3.17;;;2.08;;
15218;SDS011;15623;53.986;11.676;2022-07-29T14:18:43;4.15;;;2.03;;
15218;SDS011;15623;53.986;11.676;2022-07-29T14:21:11;4.20;;;2.03;;
15218;SDS011;15623;53.986;11.676;2022-07-29T14:23:45;6.38;;;2.13;;
15218;SDS011;15623;53.986;11.676;2022-07-29T14:26:14;8.07;;;2.00;;
15218;SDS011;15623;53.986;11.676;2022-07-29T14:28:49;5.13;;;1.90;;
15218;SDS011;15623;53.986;11.676;2022-07-29T14:31:18;5.70;;;1.80;;
15218;SDS011;15623;53.986;11.676;2022-07-29T14:33:46;5.78;;;2.00;;
15218;SDS011;15623;53.986;11.676;2022-07-29T14:36:13;4.75;;;1.90;;
15218;SDS011;15623;53.986;11.676;2022-07-29T14:38:50;7.07;;;1.90;;
15218;SDS011;15623;53.986;11.676;2022-07-29T14:41:18;4.78;;;2.10;;
15218;SDS011;15623;53.986;11.676;2022-07-29T14:43:46;6.45;;;2.10;;
15218;SDS011;15623;53.986;11.676;2022-07-29T14:46:20;4.30;;;2.03;;
15218;SDS011;15623;53.986;11.676;2022-07-29T14:48:52;2.63;;;1.95;;
15218;SDS011;15623;53.986;11.676;2022-07-29T14:51:19;3.40;;;2.05;;
15218;SDS011;15623;53.986;11.676;2022-07-29T14:53:47;6.00;;;1.92;;
15218;SDS011;15623;53.986;11.676;2022-07-29T14:56:14;3.47;;;1.80;;
15218;SDS011;15623;53.986;11.676;2022-07-29T14:58:45;3.50;;;2.20;;
15218;SDS011;15623;53.986;11.676;2022-07-29T15:01:12;4.07;;;2.03;;
15218;SDS011;15623;53.986;11.676;2022-07-29T15:03:45;3.80;;;2.20;;
15218;SDS011;15623;53.986;11.676;2022-07-29T15:06:13;5.95;;;1.80;;
15218;SDS011;15623;53.986;11.676;2022-07-29T15:08:41;4.15;;;1.70;;
15218;SDS011;15623;53.986;11.676;2022-07-29T15:11:08;2.97;;;1.70;;
15218;SDS011;15623;53.986;11.676;2022-07-29T15:13:36;6.53;;;1.80;;
15218;SDS011;15623;53.986;11.676;2022-07-29T15:16:04;1.77;;;1.50;;
15218;SDS011;15623;53.986;11.676;2022-07-29T15:18:39;3.13;;;1.70;;
15218;SDS011;15623;53.986;11.676;2022-07-29T15:21:08;8.10;;;1.60;;
15218;SDS011;15623;53.986;11.676;2022-07-29T15:23:36;3.55;;;1.60;;
15218;SDS011;15623;53.986;11.676;2022-07-29T15:26:03;3.80;;;1.60;;
15218;SDS011;15623;53.986;11.676;2022-07-29T15:28:31;5.68;;;1.73;;
15218;SDS011;15623;53.986;11.676;2022-07-29T15:30:58;4.78;;;1.75;;
15218;SDS011;15623;53.986;11.676;2022-07-29T15:33:27;5.30;;;1.88;;
15218;SDS011;15623;53.986;11.676;2022-07-29T15:35:56;2.58;;;1.77;;
15218;SDS011;15623;53.986;11.676;2022-07-29T15:55:46;3.08;;;1.90;;
15218;SDS011;15623;53.986;11.676;2022-07-29T15:58:29;3.00;;;1.77;;
15218;SDS011;15623;53.986;11.676;2022-07-29T16:00:57;3.92;;;1.70;;
15218;SDS011;15623;53.986;11.676;2022-07-29T16:03:46;8.98;;;1.60;;
15218;SDS011;15623;53.986;11.676;2022-07-29T16:09:31;3.50;;;1.90;;
15218;SDS011;15623;53.986;11.676;2022-07-29T16:12:02;3.65;;;1.73;;
15218;SDS011;15623;53.986;11.676;2022-07-29T16:15:03;3.13;;;1.80;;
15218;SDS011;15623;53.986;11.676;2022-07-29T16:17:39;2.00;;;1.65;;
15218;SDS011;15623;53.986;11.676;2022-07-29T16:20:07;4.35;;;2.00;;
15218;SDS011;15623;53.986;11.676;2022-07-29T16:22:37;3.63;;;1.85;;
15218;SDS011;15623;53.986;11.676;2022-07-29T16:25:05;5.78;;;1.80;;
15218;SDS011;15623;53.986;11.676;2022-07-29T16:27:35;6.63;;;1.60;;
15218;SDS011;15623;53.986;11.676;2022-07-29T16:30:05;6.78;;;1.80;;
15218;SDS011;15623;53.986;11.676;2022-07-29T16:32:36;3.25;;;1.92;;
15218;SDS011;15623;53.986;11.676;2022-07-29T16:35:04;7.47;;;2.00;;
15218;SDS011;15623;53.986;11.676;2022-07-29T16:37:32;4.65;;;1.75;;
15218;SDS011;15623;53.986;11.676;2022-07-29T16:40:01;3.42;;;1.90;;
15218;SDS011;15623;53.986;11.676;2022-07-29T16:42:28;5.65;;;1.88;;
15218;SDS011;15623;53.986;11.676;2022-07-29T16:45:09;4.93;;;1.80;;
15218;SDS011;15623;53.986;11.676;2022-07-29T16:47:36;4.90;;;1.80;;
15218;SDS011;15623;53.986;11.676;2022-07-29T16:50:04;2.05;;;1.70;;
15218;SDS011;15623;53.986;11.676;2022-07-29T16:52:32;5.93;;;1.70;;
15218;SDS011;15623;53.986;11.676;2022-07-29T16:55:10;2.00;;;1.52;;
15218;SDS011;15623;53.986;11.676;2022-07-29T16:57:40;3.83;;;1.90;;
15218;SDS011;15623;53.986;11.676;2022-07-29T17:00:10;2.53;;;1.42;;
15218;SDS011;15623;53.986;11.676;2022-07-29T17:02:39;5.47;;;1.80;;
15218;SDS011;15623;53.986;11.676;2022-07-29T17:05:06;5.93;;;1.90;;
15218;SDS011;15623;53.986;11.676;2022-07-29T17:07:34;6.22;;;1.95;;
15218;SDS011;15623;53.986;11.676;2022-07-29T17:10:02;6.55;;;1.90;;
15218;SDS011;15623;53.986;11.676;2022-07-29T17:12:32;4.18;;;1.90;;
15218;SDS011;15623;53.986;11.676;2022-07-29T17:15:21;5.30;;;1.70;;
15218;SDS011;15623;53.986;11.676;2022-07-29T17:17:57;2.08;;;1.85;;
15218;SDS011;15623;53.986;11.676;2022-07-29T17:20:26;5.07;;;1.48;;
15218;SDS011;15623;53.986;11.676;2022-07-29T17:22:55;3.78;;;1.60;;
15218;SDS011;15623;53.986;11.676;2022-07-29T17:25:26;4.25;;;1.90;;
15218;SDS011;15623;53.986;11.676;2022-07-29T17:27:53;7.68;;;1.90;;
15218;SDS011;15623;53.986;11.676;2022-07-29T17:30:23;6.85;;;2.30;;
15218;SDS011;15623;53.986;11.676;2022-07-29T17:32:50;5.25;;;2.08;;
15218;SDS011;15623;53.986;11.676;2022-07-29T17:35:18;4.50;;;2.03;;
15218;SDS011;15623;53.986;11.676;2022-07-29T17:38:03;5.18;;;2.05;;
15218;SDS011;15623;53.986;11.676;2022-07-29T17:40:32;2.33;;;1.90;;
15218;SDS011;15623;53.986;11.676;2022-07-29T17:43:00;3.83;;;2.13;;
15218;SDS011;15623;53.986;11.676;2022-07-29T17:45:30;3.53;;;1.80;;
15218;SDS011;15623;53.986;11.676;2022-07-29T17:47:57;2.30;;;1.73;;
15218;SDS011;15623;53.986;11.676;2022-07-29T17:50:25;4.35;;;1.90;;
15218;SDS011;15623;53.986;11.676;2022-07-29T17:52:53;4.05;;;2.05;;
15218;SDS011;15623;53.986;11.676;2022-07-29T17:55:21;1.75;;;1.65;;
15218;SDS011;15623;53.986;11.676;2022-07-29T17:57:49;4.50;;;2.05;;
15218;SDS011;15623;53.986;11.676;2022-07-29T18:00:17;5.70;;;2.03;;
15218;SDS011;15623;53.986;11.676;2022-07-29T18:02:48;4.45;;;1.88;;
15218;SDS011;15623;53.986;11.676;2022-07-29T18:05:16;2.05;;;1.60;;
15218;SDS011;15623;53.986;11.676;2022-07-29T18:07:43;6.03;;;2.10;;
15218;SDS011;15623;53.986;11.676;2022-07-29T18:10:11;2.35;;;1.70;;
15218;SDS011;15623;53.986;11.676;2022-07-29T18:12:39;3.50;;;2.00;;
15218;SDS011;15623;53.986;11.676;2022-07-29T18:15:07;2.70;;;1.90;;
15218;SDS011;15623;53.986;11.676;2022-07-29T18:17:35;3.92;;;1.80;;
15218;SDS011;15623;53.986;11.676;2022-07-29T18:20:05;3.17;;;2.00;;
15218;SDS011;15623;53.986;11.676;2022-07-29T18:22:34;3.65;;;1.90;;
15218;SDS011;15623;53.986;11.676;2022-07-29T18:25:04;3.25;;;2.13;;
15218;SDS011;15623;53.986;11.676;2022-07-29T18:27:34;3.45;;;2.17;;
15218;SDS011;15623;53.986;11.676;2022-07-29T18:30:01;3.55;;;1.67;;
15218;SDS011;15623;53.986;11.676;2022-07-29T18:32:30;3.67;;;2.15;;
15218;SDS011;15623;53.986;11.676;2022-07-29T18:34:59;4.72;;;1.80;;
15218;SDS011;15623;53.986;11.676;2022-07-29T18:37:31;4.32;;;1.95;;
15218;SDS011;15623;53.986;11.676;2022-07-29T18:40:00;2.13;;;1.85;;
15218;SDS011;15623;53.986;11.676;2022-07-29T18:42:27;1.80;;;1.70;;
15218;SDS011;15623;53.986;11.676;2022-07-29T18:44:55;5.85;;;1.70;;
15218;SDS011;15623;53.986;11.676;2022-07-29T18:47:22;2.65;;;2.03;;
15218;SDS011;15623;53.986;11.676;2022-07-29T18:49:50;3.15;;;2.15;;
15218;SDS011;15623;53.986;11.676;2022-07-29T18:52:19;3.13;;;1.98;;
15218;SDS011;15623;53.986;11.676;2022-07-29T18:54:49;2.35;;;2.00;;
15218;SDS011;15623;53.986;11.676;2022-07-29T18:57:16;5.90;;;2.05;;
15218;SDS011;15623;53.986;11.676;2022-07-29T18:59:44;6.03;;;1.85;;
15218;SDS011;15623;53.986;11.676;2022-07-29T19:02:11;3.15;;;1.98;;
15218;SDS011;15623;53.986;11.676;2022-07-29T19:04:45;2.85;;;2.10;;
15218;SDS011;15623;53.986;11.676;2022-07-29T19:07:27;8.45;;;2.20;;
15218;SDS011;15623;53.986;11.676;2022-07-29T19:09:58;5.00;;;2.25;;
15218;SDS011;15623;53.986;11.676;2022-07-29T19:12:27;4.90;;;1.83;;
15218;SDS011;15623;53.986;11.676;2022-07-29T19:14:58;8.63;;;1.90;;
15218;SDS011;15623;53.986;11.676;2022-07-29T19:17:34;2.58;;;1.85;;
15218;SDS011;15623;53.986;11.676;2022-07-29T19:20:02;6.18;;;2.35;;
15218;SDS011;15623;53.986;11.676;2022-07-29T19:22:29;4.82;;;2.28;;
15218;SDS011;15623;53.986;11.676;2022-07-29T19:24:58;2.05;;;1.80;;
15218;SDS011;15623;53.986;11.676;2022-07-29T19:27:27;2.97;;;2.00;;
15218;SDS011;15623;53.986;11.676;2022-07-29T19:29:55;3.65;;;2.20;;
15218;SDS011;15623;53.986;11.676;2022-07-29T19:32:27;2.92;;;2.10;;
15218;SDS011;15623;53.986;11.676;2022-07-29T19:34:54;2.80;;;2.13;;
15218;SDS011;15623;53.986;11.676;2022-07-29T19:37:39;2.25;;;1.90;;
15218;SDS011;15623;53.986;11.676;2022-07-29T19:40:09;3.13;;;2.42;;
15218;SDS011;15623;53.986;11.676;2022-07-29T19:42:40;7.70;;;2.10;;
15218;SDS011;15623;53.986;11.676;2022-07-29T19:45:08;4.35;;;1.80;;
15218;SDS011;15623;53.986;11.676;2022-07-29T19:47:37;4.72;;;2.28;;
15218;SDS011;15623;53.986;11.676;2022-07-29T19:50:06;3.50;;;2.22;;
15218;SDS011;15623;53.986;11.676;2022-07-29T19:52:34;7.20;;;2.20;;
15218;SDS011;15623;53.986;11.676;2022-07-29T19:55:02;4.93;;;2.03;;
15218;SDS011;15623;53.986;11.676;2022-07-29T19:57:32;4.85;;;2.05;;
15218;SDS011;15623;53.986;11.676;2022-07-29T19:59:59;9.15;;;2.10;;
15218;SDS011;15623;53.986;11.676;2022-07-29T20:02:27;6.45;;;2.35;;
15218;SDS011;15623;53.986;11.676;2022-07-29T20:04:55;6.00;;;2.10;;
15218;SDS011;15623;53.986;11.676;2022-07-29T20:07:22;5.82;;;2.10;;
15218;SDS011;15623;53.986;11.676;2022-07-29T20:09:50;4.57;;;2.30;;
15218;SDS011;15623;53.986;11.676;2022-07-29T20:12:18;6.18;;;2.28;;
15218;SDS011;15623;53.986;11.676;2022-07-29T20:17:21;5.97;;;2.05;;
15218;SDS011;15623;53.986;11.676;2022-07-29T20:19:51;8.85;;;2.15;;
15218;SDS011;15623;53.986;11.676;2022-07-29T20:22:20;3.25;;;2.00;;
15218;SDS011;15623;53.986;11.676;2022-07-29T20:30:13;5.20;;;2.30;;
15218;SDS011;15623;53.986;11.676;2022-07-29T20:33:10;5.55;;;2.10;;
15218;SDS011;15623;53.986;11.676;2022-07-29T20:48:46;5.68;;;2.38;;
15218;SDS011;15623;53.986;11.676;2022-07-29T20:51:17;3.38;;;2.00;;
15218;SDS011;15623;53.986;11.676;2022-07-29T20:53:46;4.57;;;2.30;;
15218;SDS011;15623;53.986;11.676;2022-07-29T20:56:15;6.55;;;2.40;;
15218;SDS011;15623;53.986;11.676;2022-07-29T20:58:42;3.97;;;2.40;;
15218;SDS011;15623;53.986;11.676;2022-07-29T21:01:11;4.25;;;2.38;;
15218;SDS011;15623;53.986;11.676;2022-07-29T21:03:39;3.35;;;2.35;;
15218;SDS011;15623;53.986;11.676;2022-07-29T21:06:08;5.18;;;2.67;;
15218;SDS011;15623;53.986;11.676;2022-07-29T21:08:36;6.40;;;2.33;;
15218;SDS011;15623;53.986;11.676;2022-07-29T21:11:11;4.97;;;2.50;;
15218;SDS011;15623;53.986;11.676;2022-07-29T21:13:40;3.88;;;2.58;;
15218;SDS011;15623;53.986;11.676;2022-07-29T21:16:09;5.05;;;2.58;;
15218;SDS011;15623;53.986;11.676;2022-07-29T21:18:44;4.63;;;2.53;;
15218;SDS011;15623;53.986;11.676;2022-07-29T21:21:28;3.00;;;2.42;;
15218;SDS011;15623;53.986;11.676;2022-07-29T21:23:55;7.70;;;2.70;;
15218;SDS011;15623;53.986;11.676;2022-07-29T21:26:26;5.72;;;2.58;;
15218;SDS011;15623;53.986;11.676;2022-07-29T21:29:08;2.55;;;2.35;;